TAF Text Data
IDs:
Format:
Raw Decoded Include METAR

Data at: 1151 UTC 10 Jul 2020

KCAR 101120Z 1012/1112 VRB02KT 1SM BR OVC004
  FM101300 14003KT P6SM BKN010
  FM101430 15005KT P6SM SCT025
  FM101600 16007KT P6SM SCT040
  FM110400 17007KT P6SM SCT008 BKN022
  FM110700 16006KT 5SM BR VCSH OVC005